Time;durP1;ratioP1;P1;durP2;ratioP2;P2;SDS_P1;SDS_P2;PMS_P1;PMS_P2;Temp;Humidity;BMP_temperature;BMP_pressure;BME280_temperature;BME280_humidity;BME280_pressure;Samples;Min_cycle;Max_cycle;Signal;HPM_P1;HPM_P2
2022/05/17 00:02:37;;;;;;;0.40;0.40;;;18.90;75.30;;;;;;5052765;28;20197;-73
2022/05/17 00:05:27;;;;;;;0.40;0.40;;;18.80;75.90;;;;;;5053571;28;20203;-72
2022/05/17 00:08:16;;;;;;;0.50;0.50;;;18.80;75.70;;;;;;5055104;28;20209;-70
2022/05/17 00:11:06;;;;;;;0.47;0.47;;;18.80;78.20;;;;;;5052621;28;20201;-69
2022/05/17 00:13:54;;;;;;;0.40;0.40;;;18.70;77.80;;;;;;5053212;28;20221;-69
2022/05/17 00:16:44;;;;;;;0.50;0.50;;;18.80;77.10;;;;;;5053514;28;20217;-71
2022/05/17 00:19:33;;;;;;;0.50;0.50;;;18.70;76.80;;;;;;5052511;28;20256;-68
2022/05/17 00:22:21;;;;;;;0.70;0.70;;;18.50;76.10;;;;;;5052692;28;20201;-69
2022/05/17 00:25:11;;;;;;;0.40;0.40;;;18.60;76.50;;;;;;5053882;28;20252;-69
2022/05/17 00:27:59;;;;;;;0.50;0.50;;;18.60;75.60;;;;;;5053040;28;20198;-69
2022/05/17 00:30:49;;;;;;;0.40;0.40;;;18.50;75.90;;;;;;5052713;28;20205;-68
2022/05/17 00:33:38;;;;;;;0.40;0.40;;;18.50;75.80;;;;;;5052319;28;20226;-68
2022/05/17 00:36:26;;;;;;;0.50;0.50;;;18.50;76.10;;;;;;5052774;28;20254;-68
2022/05/17 00:39:15;;;;;;;0.40;0.40;;;18.50;76.00;;;;;;5053405;28;20271;-71
2022/05/17 00:42:03;;;;;;;0.50;0.50;;;18.50;75.60;;;;;;5052599;28;20228;-70
2022/05/17 00:44:51;;;;;;;0.40;0.40;;;18.50;75.20;;;;;;5052874;28;20225;-70
2022/05/17 00:47:43;;;;;;;0.40;0.40;;;18.50;75.20;;;;;;5052828;28;20597;-69
2022/05/17 00:50:37;;;;;;;0.40;0.40;;;18.60;75.30;;;;;;5052630;28;20278;-70
2022/05/17 00:53:31;;;;;;;0.50;0.50;;;18.40;75.30;;;;;;5051768;28;20245;-69
2022/05/17 00:56:23;;;;;;;0.40;0.40;;;18.40;75.30;;;;;;5053244;28;20702;-68
2022/05/17 00:59:11;;;;;;;0.40;0.40;;;18.40;75.30;;;;;;5052704;28;20709;-68
2022/05/17 01:02:00;;;;;;;0.40;0.40;;;18.40;75.30;;;;;;5052189;28;20729;-67
2022/05/17 01:04:48;;;;;;;0.40;0.40;;;18.40;75.00;;;;;;5052760;28;20218;-69
2022/05/17 01:07:41;;;;;;;0.40;0.40;;;18.30;75.40;;;;;;5052967;28;20206;-70
2022/05/17 01:10:31;;;;;;;0.50;0.50;;;18.30;76.50;;;;;;5052836;28;20677;-69
2022/05/17 01:16:26;;;;;;;0.40;0.40;;;18.20;79.60;;;;;;5052346;28;20713;-68
2022/05/17 01:19:15;;;;;;;0.40;0.40;;;17.90;82.90;;;;;;5053249;28;20603;-67
2022/05/17 01:22:05;;;;;;;0.50;0.50;;;17.80;85.20;;;;;;5053137;28;20634;-68
2022/05/17 01:24:54;;;;;;;0.45;0.45;;;17.70;86.80;;;;;;5053420;28;20263;-68
2022/05/17 01:27:48;;;;;;;0.40;0.40;;;17.50;88.90;;;;;;5052738;28;20276;-68
2022/05/17 01:30:37;;;;;;;0.50;0.50;;;17.50;90.00;;;;;;5052634;28;20205;-68
2022/05/17 01:33:25;;;;;;;0.40;0.40;;;17.40;90.10;;;;;;5052617;28;20225;-69
2022/05/17 01:36:16;;;;;;;0.40;0.40;;;17.20;91.10;;;;;;5053494;28;20623;-68
2022/05/17 01:39:06;;;;;;;0.50;0.50;;;17.10;91.80;;;;;;5052597;28;20687;-69
2022/05/17 01:41:54;;;;;;;0.50;0.50;;;16.90;92.50;;;;;;5052542;28;20220;-67
2022/05/17 01:44:44;;;;;;;0.50;0.50;;;16.80;93.60;;;;;;5052916;28;20241;-68
2022/05/17 01:47:32;;;;;;;0.40;0.40;;;16.70;94.50;;;;;;5053229;28;20205;-68
2022/05/17 01:50:20;;;;;;;0.50;0.50;;;16.60;96.20;;;;;;5067570;28;20279;-68
2022/05/17 01:53:08;;;;;;;0.40;0.40;;;16.50;98.00;;;;;;5072084;28;20215;-68
2022/05/17 01:55:57;;;;;;;0.45;0.45;;;16.40;99.90;;;;;;5073019;28;20212;-69
2022/05/17 01:58:46;;;;;;;0.50;0.50;;;16.20;99.90;;;;;;5070801;28;20252;-69
2022/05/17 02:01:34;;;;;;;0.50;0.50;;;16.20;99.90;;;;;;5076311;28;20258;-68
2022/05/17 02:04:22;;;;;;;0.40;0.40;;;16.20;99.90;;;;;;5072941;28;20220;-67
2022/05/17 02:07:11;;;;;;;0.40;0.40;;;16.20;99.90;;;;;;5074053;28;20286;-68
2022/05/17 02:09:59;;;;;;;0.40;0.40;;;16.30;99.90;;;;;;5073688;28;20246;-67
2022/05/17 02:12:49;;;;;;;0.40;0.40;;;16.30;99.90;;;;;;5071014;28;20196;-67
2022/05/17 02:15:37;;;;;;;0.40;0.40;;;16.40;99.90;;;;;;5071607;28;20208;-68
2022/05/17 02:18:25;;;;;;;0.40;0.40;;;16.40;99.90;;;;;;5071585;28;20217;-68
2022/05/17 02:21:14;;;;;;;0.50;0.50;;;16.40;99.90;;;;;;5072896;28;20692;-68
2022/05/17 02:24:02;;;;;;;0.40;0.40;;;16.50;99.90;;;;;;5070742;28;20528;-68
2022/05/17 02:26:50;;;;;;;0.40;0.40;;;16.30;99.90;;;;;;5072181;28;20201;-68
2022/05/17 02:29:40;;;;;;;0.40;0.40;;;16.20;99.90;;;;;;5070742;28;20220;-68
2022/05/17 02:32:28;;;;;;;0.40;0.40;;;16.10;99.90;;;;;;5071392;28;20201;-69
2022/05/17 02:35:16;;;;;;;0.50;0.50;;;16.00;99.90;;;;;;5072139;28;20244;-68
2022/05/17 02:38:05;;;;;;;0.40;0.40;;;15.90;99.90;;;;;;5071468;28;20343;-68
2022/05/17 02:40:53;;;;;;;0.40;0.40;;;15.80;99.90;;;;;;5070558;28;20201;-68
2022/05/17 02:43:41;;;;;;;0.40;0.40;;;15.70;99.90;;;;;;5070320;28;20228;-68
2022/05/17 02:46:31;;;;;;;0.40;0.40;;;15.60;99.90;;;;;;5071863;28;20258;-69
2022/05/17 02:49:19;;;;;;;0.50;0.50;;;15.50;99.90;;;;;;5070461;28;20239;-68
2022/05/17 02:52:08;;;;;;;0.40;0.40;;;15.50;99.90;;;;;;5070453;28;20207;-68
2022/05/17 02:54:56;;;;;;;0.60;0.60;;;15.50;99.90;;;;;;5070970;28;20646;-69
2022/05/17 02:57:44;;;;;;;0.40;0.40;;;15.40;99.90;;;;;;5071285;28;20224;-69
2022/05/17 03:00:33;;;;;;;0.40;0.40;;;15.40;99.90;;;;;;5072272;28;20239;-67
2022/05/17 03:03:22;;;;;;;0.40;0.40;;;15.40;99.90;;;;;;5070794;28;20256;-68
2022/05/17 03:06:16;;;;;;;0.47;0.47;;;15.40;99.90;;;;;;5072389;28;20724;-69
2022/05/17 03:09:04;;;;;;;0.40;0.40;;;15.40;99.90;;;;;;5070438;28;20197;-67
2022/05/17 03:11:52;;;;;;;0.47;0.47;;;15.30;99.90;;;;;;5071667;28;20206;-68
2022/05/17 03:14:40;;;;;;;0.40;0.40;;;15.30;99.90;;;;;;5072321;28;20229;-70
2022/05/17 03:17:28;;;;;;;0.40;0.40;;;15.20;99.90;;;;;;5071312;28;20703;-68
2022/05/17 03:20:18;;;;;;;0.40;0.40;;;15.10;99.90;;;;;;5069746;28;20273;-68
2022/05/17 03:23:06;;;;;;;0.50;0.50;;;14.90;99.90;;;;;;5070341;28;20200;-68
2022/05/17 03:25:54;;;;;;;0.50;0.50;;;14.90;99.90;;;;;;5071178;28;20200;-70
2022/05/17 03:28:42;;;;;;;0.50;0.50;;;14.80;99.90;;;;;;5069961;28;20260;-68
2022/05/17 03:31:31;;;;;;;0.50;0.50;;;14.70;99.90;;;;;;5071520;28;20200;-68
2022/05/17 03:34:19;;;;;;;0.50;0.50;;;14.70;99.90;;;;;;5071767;28;20225;-69
2022/05/17 03:37:09;;;;;;;0.40;0.40;;;14.60;99.90;;;;;;5070562;28;20580;-69
2022/05/17 03:39:57;;;;;;;0.40;0.40;;;14.60;99.90;;;;;;5070669;28;20220;-68
2022/05/17 03:42:45;;;;;;;0.45;0.45;;;14.60;99.90;;;;;;5070852;28;20208;-69
2022/05/17 03:45:34;;;;;;;0.50;0.50;;;14.50;99.90;;;;;;5071357;28;20215;-71
2022/05/17 03:48:23;;;;;;;0.70;0.70;;;14.40;99.90;;;;;;5070283;28;20196;-69
2022/05/17 03:51:13;;;;;;;0.50;0.50;;;14.20;99.90;;;;;;5070525;28;20205;-68
2022/05/17 03:54:03;;;;;;;0.50;0.50;;;14.00;99.90;;;;;;5071542;28;20217;-70
2022/05/17 03:56:51;;;;;;;0.50;0.50;;;14.00;99.90;;;;;;5073965;28;20238;-70
2022/05/17 03:59:39;;;;;;;0.50;0.50;;;13.90;99.90;;;;;;5074506;28;20732;-69
2022/05/17 04:02:28;;;;;;;0.40;0.40;;;13.90;99.90;;;;;;5072748;28;20274;-68
2022/05/17 04:05:16;;;;;;;0.40;0.40;;;13.80;99.90;;;;;;5074454;28;20224;-71
2022/05/17 04:08:05;;;;;;;0.40;0.40;;;13.80;99.90;;;;;;5072974;28;20673;-68
2022/05/17 04:10:54;;;;;;;0.40;0.40;;;13.80;99.90;;;;;;5074172;28;20204;-72
2022/05/17 04:13:43;;;;;;;0.40;0.40;;;13.90;99.90;;;;;;5072805;28;20721;-68
2022/05/17 04:16:32;;;;;;;0.40;0.40;;;13.90;99.90;;;;;;5074148;28;20193;-68
2022/05/17 04:19:21;;;;;;;0.50;0.50;;;14.00;99.90;;;;;;5073402;28;20216;-69
2022/05/17 04:22:11;;;;;;;0.40;0.40;;;14.00;99.90;;;;;;5073201;28;20637;-67
2022/05/17 04:24:59;;;;;;;0.40;0.40;;;14.10;99.90;;;;;;5074609;28;20225;-68
2022/05/17 04:27:49;;;;;;;0.40;0.40;;;14.10;99.90;;;;;;5074025;28;20203;-68
2022/05/17 04:30:37;;;;;;;0.40;0.40;;;14.20;99.90;;;;;;5074621;28;20218;-69
2022/05/17 04:33:25;;;;;;;0.40;0.40;;;14.20;99.90;;;;;;5072482;28;20228;-68
2022/05/17 04:36:13;;;;;;;0.40;0.40;;;14.30;99.90;;;;;;5073367;28;20274;-68
2022/05/17 04:39:02;;;;;;;0.50;0.50;;;14.40;99.90;;;;;;5072781;28;20217;-69
2022/05/17 04:41:50;;;;;;;0.50;0.50;;;14.40;99.90;;;;;;5073074;28;20200;-68
2022/05/17 04:44:39;;;;;;;0.40;0.40;;;14.50;99.90;;;;;;5073790;28;20256;-68
2022/05/17 04:47:28;;;;;;;0.40;0.40;;;14.50;99.90;;;;;;5074706;28;20201;-68
2022/05/17 04:50:18;;;;;;;0.40;0.40;;;14.50;99.90;;;;;;5073403;28;20220;-68
2022/05/17 04:53:06;;;;;;;0.40;0.40;;;14.50;99.90;;;;;;5073019;28;20278;-68
2022/05/17 04:55:54;;;;;;;0.40;0.40;;;14.60;99.90;;;;;;5072420;28;20289;-68
2022/05/17 04:58:43;;;;;;;0.43;0.43;;;14.60;99.90;;;;;;5073523;28;20646;-67
2022/05/17 05:01:32;;;;;;;0.50;0.50;;;14.60;99.90;;;;;;5071784;28;20197;-69
2022/05/17 05:04:20;;;;;;;0.40;0.40;;;14.70;99.90;;;;;;5072817;28;20239;-68
2022/05/17 05:07:08;;;;;;;0.40;0.40;;;14.70;99.90;;;;;;5073344;28;20230;-68
2022/05/17 05:09:57;;;;;;;0.40;0.40;;;14.70;99.90;;;;;;5073177;28;20204;-68
2022/05/17 05:12:45;;;;;;;0.47;0.47;;;14.80;99.90;;;;;;5072933;28;20692;-69
2022/05/17 05:15:36;;;;;;;0.40;0.40;;;14.90;99.90;;;;;;5073429;28;20209;-68
2022/05/17 05:18:26;;;;;;;0.40;0.40;;;14.90;99.90;;;;;;5073171;28;20200;-68
2022/05/17 05:21:16;;;;;;;0.40;0.40;;;15.00;99.90;;;;;;5072967;28;20201;-70
2022/05/17 05:24:07;;;;;;;0.40;0.40;;;15.00;99.90;;;;;;5072550;28;20220;-69
2022/05/17 05:26:55;;;;;;;0.50;0.50;;;15.10;99.90;;;;;;5072114;28;20196;-68
2022/05/17 05:29:43;;;;;;;0.40;0.40;;;15.20;99.90;;;;;;5072516;28;20208;-67
2022/05/17 05:32:31;;;;;;;0.40;0.40;;;15.30;99.90;;;;;;5072537;28;20212;-69
2022/05/17 05:35:21;;;;;;;0.40;0.40;;;15.30;99.90;;;;;;5069619;28;20223;-68
2022/05/17 05:38:10;;;;;;;0.40;0.40;;;15.30;99.90;;;;;;5082052;28;20207;-68
2022/05/17 05:40:58;;;;;;;0.40;0.40;;;15.30;99.90;;;;;;5069237;28;20236;-67
2022/05/17 05:43:46;;;;;;;0.40;0.40;;;15.30;99.90;;;;;;5072202;28;20232;-68
2022/05/17 05:46:34;;;;;;;0.40;0.40;;;15.30;99.90;;;;;;5073013;28;20673;-68
2022/05/17 05:49:22;;;;;;;0.47;0.47;;;15.30;99.90;;;;;;5071188;28;20193;-68
2022/05/17 05:52:12;;;;;;;0.40;0.40;;;15.30;99.90;;;;;;5071568;28;20228;-68
2022/05/17 05:55:01;;;;;;;0.40;0.40;;;15.40;99.90;;;;;;5079162;28;20712;-70
2022/05/17 05:57:50;;;;;;;0.45;0.45;;;15.50;99.90;;;;;;5071646;28;20215;-68
2022/05/17 06:00:38;;;;;;;0.45;0.45;;;15.60;99.90;;;;;;5070342;28;20706;-70
2022/05/17 06:03:27;;;;;;;0.50;0.50;;;16.70;99.90;;;;;;5067323;28;20312;-68
2022/05/17 06:06:16;;;;;;;0.40;0.40;;;15.90;99.90;;;;;;5051894;28;20220;-69
2022/05/17 06:09:06;;;;;;;0.82;0.82;;;15.90;99.90;;;;;;5081042;28;20200;-69
2022/05/17 06:11:54;;;;;;;0.50;0.50;;;15.90;99.90;;;;;;5092032;28;20203;-68
2022/05/17 06:14:43;;;;;;;0.40;0.40;;;15.90;99.90;;;;;;5090749;28;20458;-68
2022/05/17 06:17:31;;;;;;;0.40;0.40;;;15.90;99.90;;;;;;5083835;28;20627;-68
2022/05/17 06:20:19;;;;;;;0.40;0.40;;;16.00;99.90;;;;;;5063393;28;20303;-69
2022/05/17 06:23:10;;;;;;;0.40;0.40;;;16.00;99.90;;;;;;5090009;28;20200;-68
2022/05/17 06:25:59;;;;;;;0.50;0.50;;;16.00;99.90;;;;;;5090385;28;20200;-68
2022/05/17 06:28:47;;;;;;;0.40;0.40;;;16.00;99.90;;;;;;5091565;28;20200;-68
2022/05/17 06:31:36;;;;;;;0.50;0.50;;;16.00;99.90;;;;;;5090768;28;20227;-67
2022/05/17 06:34:24;;;;;;;0.40;0.40;;;15.90;99.90;;;;;;5090924;28;20231;-69
2022/05/17 06:37:13;;;;;;;0.50;0.50;;;15.80;99.90;;;;;;5092355;28;20200;-69
2022/05/17 06:40:02;;;;;;;0.50;0.50;;;15.90;99.90;;;;;;5091235;28;20773;-68
2022/05/17 06:42:51;;;;;;;0.40;0.40;;;16.00;99.90;;;;;;5090656;28;20204;-68
2022/05/17 06:45:40;;;;;;;1.05;0.82;;;15.90;99.90;;;;;;5092287;28;20206;-70
2022/05/17 06:48:28;;;;;;;0.40;0.40;;;15.90;99.90;;;;;;5092024;28;20207;-69
2022/05/17 06:51:16;;;;;;;0.40;0.40;;;16.00;99.90;;;;;;5092785;28;20688;-69
2022/05/17 06:54:05;;;;;;;0.40;0.40;;;16.00;99.90;;;;;;5091298;28;20216;-68
2022/05/17 06:56:53;;;;;;;0.40;0.40;;;16.00;99.90;;;;;;5084707;28;20631;-68
2022/05/17 06:59:44;;;;;;;1.42;1.42;;;15.90;99.90;;;;;;5071891;28;20709;-68
2022/05/17 07:02:32;;;;;;;0.40;0.40;;;15.80;99.90;;;;;;5070794;28;20354;-68
2022/05/17 07:05:21;;;;;;;0.40;0.40;;;15.70;99.90;;;;;;5070914;28;20724;-68
2022/05/17 07:08:10;;;;;;;0.40;0.40;;;15.70;99.90;;;;;;5071153;28;20192;-67
2022/05/17 07:14:04;;;;;;;0.43;0.43;;;15.80;99.90;;;;;;5071762;28;20213;-68
2022/05/17 07:16:53;;;;;;;0.40;0.40;;;15.90;99.90;;;;;;5071891;28;20648;-68
2022/05/17 07:19:41;;;;;;;1.23;0.80;;;15.90;99.90;;;;;;5071177;28;20228;-69
2022/05/17 07:22:29;;;;;;;1.55;1.50;;;15.80;99.90;;;;;;5072279;28;20228;-69
2022/05/17 07:25:18;;;;;;;0.40;0.40;;;15.80;99.90;;;;;;5071406;28;20554;-69
2022/05/17 07:28:06;;;;;;;0.40;0.40;;;16.00;99.90;;;;;;5073143;28;20240;-68
2022/05/17 07:30:55;;;;;;;0.40;0.40;;;16.30;99.90;;;;;;5075751;28;20223;-68
2022/05/17 07:33:44;;;;;;;0.40;0.40;;;16.40;99.90;;;;;;5074094;28;20266;-68
2022/05/17 07:36:32;;;;;;;0.70;0.70;;;16.60;99.90;;;;;;5074783;28;20586;-68
2022/05/17 07:39:21;;;;;;;0.60;0.60;;;16.80;99.90;;;;;;5055400;28;20663;-69
2022/05/17 07:42:10;;;;;;;0.70;0.70;;;17.00;99.90;;;;;;5053743;28;20781;-69
2022/05/17 07:44:58;;;;;;;0.80;0.77;;;17.20;99.90;;;;;;5064040;28;20257;-70
2022/05/17 07:47:47;;;;;;;0.40;0.40;;;17.00;99.90;;;;;;5053986;28;20756;-70
2022/05/17 07:50:36;;;;;;;0.40;0.40;;;16.80;99.90;;;;;;5053534;28;20193;-68
2022/05/17 07:53:24;;;;;;;0.50;0.50;;;16.60;99.90;;;;;;5053545;28;20224;-69
2022/05/17 07:56:13;;;;;;;0.40;0.40;;;16.50;99.90;;;;;;5055937;28;20324;-70
2022/05/17 07:59:01;;;;;;;0.85;0.85;;;16.40;99.90;;;;;;5056667;28;20206;-70
2022/05/17 08:01:49;;;;;;;0.45;0.45;;;16.40;99.90;;;;;;5068056;28;20322;-71
2022/05/17 08:04:37;;;;;;;0.50;0.50;;;16.40;99.90;;;;;;5067934;28;20228;-69
2022/05/17 08:07:27;;;;;;;0.40;0.40;;;16.40;99.90;;;;;;5063697;28;20662;-69
2022/05/17 08:10:15;;;;;;;0.40;0.40;;;16.40;99.90;;;;;;5066298;28;20242;-68
2022/05/17 08:13:05;;;;;;;0.50;0.50;;;16.50;99.90;;;;;;5053757;28;20204;-69
2022/05/17 08:15:54;;;;;;;2.25;1.20;;;16.60;99.90;;;;;;5052860;28;20288;-69
2022/05/17 08:18:43;;;;;;;0.65;0.65;;;16.70;99.90;;;;;;5053899;28;20254;-68
2022/05/17 08:21:31;;;;;;;0.45;0.45;;;16.90;99.90;;;;;;5052736;28;20213;-71
2022/05/17 08:24:21;;;;;;;0.40;0.40;;;17.20;99.90;;;;;;5053594;28;20240;-73
2022/05/17 08:30:19;;;;;;;0.60;0.60;;;17.70;99.90;;;;;;5065133;28;20189;-68
2022/05/17 08:33:19;;;;;;;0.70;0.70;;;17.90;99.90;;;;;;5052629;28;20205;-69
2022/05/17 08:36:10;;;;;;;0.40;0.40;;;18.00;99.90;;;;;;5069775;28;20201;-69
2022/05/17 08:38:59;;;;;;;0.50;0.50;;;18.00;99.90;;;;;;5066783;28;20254;-68
2022/05/17 08:42:15;;;;;;;0.50;0.50;;;18.00;99.90;;;;;;5054862;28;20253;-69
2022/05/17 08:45:10;;;;;;;0.95;0.95;;;18.20;99.90;;;;;;5052466;28;20233;-69
2022/05/17 08:47:58;;;;;;;1.00;1.00;;;18.60;99.90;;;;;;5057226;28;20277;-69
2022/05/17 08:50:50;;;;;;;0.43;0.43;;;18.80;99.90;;;;;;5065285;28;20238;-68
2022/05/17 08:53:39;;;;;;;1.02;1.02;;;18.90;99.90;;;;;;5061895;28;20213;-70
2022/05/17 08:56:30;;;;;;;0.40;0.40;;;19.00;99.90;;;;;;5067511;28;20199;-69
2022/05/17 08:59:23;;;;;;;0.40;0.40;;;19.00;99.90;;;;;;5053627;28;20350;-69
2022/05/17 09:02:15;;;;;;;0.95;0.95;;;19.10;99.90;;;;;;5052335;28;20575;-70
2022/05/17 09:05:09;;;;;;;0.55;0.55;;;19.30;99.90;;;;;;5053016;28;20544;-68
2022/05/17 09:08:07;;;;;;;0.50;0.50;;;19.30;99.90;;;;;;5054318;28;20214;-69
2022/05/17 09:11:02;;;;;;;0.45;0.45;;;19.50;99.90;;;;;;5059206;28;20192;-69
2022/05/17 09:13:56;;;;;;;0.40;0.40;;;19.80;99.90;;;;;;5067517;28;20260;-71
2022/05/17 09:17:00;;;;;;;0.43;0.43;;;20.20;99.90;;;;;;5064107;28;20201;-69
2022/05/17 09:19:50;;;;;;;0.60;0.60;;;20.20;99.90;;;;;;5060928;28;20739;-68
2022/05/17 09:22:38;;;;;;;0.50;0.50;;;20.30;99.90;;;;;;5069169;28;20248;-69
2022/05/17 09:25:43;;;;;;;0.40;0.40;;;20.30;99.90;;;;;;5066678;28;20678;-68
2022/05/17 09:28:47;;;;;;;0.40;0.40;;;20.50;99.90;;;;;;5066912;28;20700;-69
2022/05/17 09:31:37;;;;;;;0.90;0.90;;;20.90;99.90;;;;;;5067326;28;20208;-68
2022/05/17 09:34:32;;;;;;;0.40;0.40;;;21.00;99.90;;;;;;5070946;28;20228;-69
2022/05/17 09:37:21;;;;;;;0.50;0.50;;;21.20;99.90;;;;;;5070006;28;20219;-69
2022/05/17 09:40:13;;;;;;;0.40;0.40;;;21.60;99.90;;;;;;5063012;28;20205;-68
2022/05/17 09:43:04;;;;;;;0.60;0.60;;;21.60;99.90;;;;;;5061598;28;20204;-68
2022/05/17 09:45:55;;;;;;;0.57;0.57;;;21.50;99.90;;;;;;5063150;28;20685;-69
2022/05/17 09:55:21;;;;;;;0.40;0.40;;;21.70;99.90;;;;;;5062494;28;20296;-68
2022/05/17 09:58:12;;;;;;;0.40;0.40;;;21.90;99.90;;;;;;5064748;28;20272;-68
2022/05/17 10:01:07;;;;;;;0.40;0.40;;;22.10;99.90;;;;;;5063050;28;20220;-68
2022/05/17 10:04:01;;;;;;;0.40;0.40;;;22.20;99.90;;;;;;5062656;28;20221;-67
2022/05/17 10:06:55;;;;;;;0.50;0.40;;;22.60;99.90;;;;;;5059604;28;20302;-67
2022/05/17 10:09:45;;;;;;;0.50;0.50;;;22.80;99.90;;;;;;5061326;28;20204;-68
2022/05/17 10:12:38;;;;;;;0.40;0.40;;;22.80;99.90;;;;;;5062915;28;20780;-67
2022/05/17 10:15:28;;;;;;;0.40;0.40;;;22.70;99.90;;;;;;5059750;28;20207;-68
2022/05/17 10:18:27;;;;;;;0.50;0.50;;;22.70;99.90;;;;;;5062405;28;20196;-68
2022/05/17 10:21:22;;;;;;;0.40;0.40;;;22.50;99.90;;;;;;5065254;28;20220;-68
2022/05/17 10:24:18;;;;;;;0.40;0.40;;;22.20;99.90;;;;;;5062284;28;20702;-68
2022/05/17 10:27:14;;;;;;;2.83;2.55;;;22.10;99.90;;;;;;5063283;28;20197;-67
2022/05/17 10:30:07;;;;;;;1.73;1.70;;;22.20;99.90;;;;;;5061866;28;20268;-69
2022/05/17 10:32:59;;;;;;;0.40;0.40;;;22.10;99.90;;;;;;5063589;28;20196;-68
2022/05/17 10:35:51;;;;;;;1.40;1.30;;;22.00;99.90;;;;;;5063655;28;20281;-68
2022/05/17 10:38:48;;;;;;;0.80;0.77;;;22.30;99.90;;;;;;5070508;28;20232;-68
2022/05/17 10:41:37;;;;;;;0.40;0.40;;;22.60;99.90;;;;;;5064659;28;20216;-67
2022/05/17 10:44:42;;;;;;;0.73;0.73;;;22.60;99.90;;;;;;5063255;28;20555;-68
2022/05/17 10:47:47;;;;;;;0.40;0.40;;;23.00;99.90;;;;;;5067982;28;20203;-68
2022/05/17 10:50:45;;;;;;;0.40;0.40;;;23.20;99.90;;;;;;5069547;28;20212;-67
2022/05/17 10:53:51;;;;;;;0.60;0.60;;;23.30;99.90;;;;;;5067000;28;20278;-68
2022/05/17 10:56:48;;;;;;;0.40;0.40;;;23.10;99.90;;;;;;5069091;28;20199;-67
2022/05/17 10:59:41;;;;;;;0.40;0.40;;;22.90;99.90;;;;;;5062260;28;20247;-67
2022/05/17 11:02:55;;;;;;;0.40;0.40;;;22.60;99.90;;;;;;5067186;28;20678;-68
2022/05/17 11:05:56;;;;;;;0.40;0.40;;;22.40;99.90;;;;;;5070048;28;20204;-69
2022/05/17 11:08:55;;;;;;;0.40;0.40;;;22.30;99.90;;;;;;5072807;28;20291;-69
2022/05/17 11:12:09;;;;;;;0.60;0.60;;;22.10;99.90;;;;;;5068818;28;20574;-68
2022/05/17 11:15:02;;;;;;;0.70;0.70;;;22.00;99.90;;;;;;5066280;28;20231;-70
2022/05/17 11:17:55;;;;;;;0.40;0.40;;;21.90;99.90;;;;;;5073528;28;20232;-69
2022/05/17 11:20:48;;;;;;;0.45;0.45;;;22.00;99.90;;;;;;5066648;28;20942;-69
2022/05/17 11:23:50;;;;;;;0.95;0.95;;;21.90;99.90;;;;;;5071666;28;20315;-68
2022/05/17 11:27:13;;;;;;;0.60;0.60;;;21.80;99.90;;;;;;5061181;28;20231;-68
2022/05/17 11:30:27;;;;;;;0.75;0.75;;;21.90;99.90;;;;;;5063437;28;20583;-69
2022/05/17 11:33:34;;;;;;;0.55;0.55;;;21.70;99.90;;;;;;5064739;28;20272;-68
2022/05/17 11:36:43;;;;;;;0.40;0.40;;;21.50;99.90;;;;;;5067071;28;20197;-69
2022/05/17 11:39:48;;;;;;;0.40;0.40;;;21.50;99.90;;;;;;5071477;28;20204;-69
2022/05/17 11:43:40;;;;;;;0.50;0.50;;;21.40;99.90;;;;;;5072777;28;20228;-68
2022/05/17 11:45:50;;;;;;;0.40;0.40;;;21.40;99.90;;;;;;5067673;28;20217;-68
2022/05/17 11:48:54;;;;;;;0.40;0.40;;;21.50;99.90;;;;;;5068392;28;20242;-69
2022/05/17 11:52:14;;;;;;;0.50;0.50;;;21.80;99.90;;;;;;5072811;28;20208;-69
2022/05/17 11:55:06;;;;;;;0.50;0.50;;;22.10;99.90;;;;;;5074638;28;20297;-68
2022/05/17 11:57:59;;;;;;;0.50;0.50;;;22.20;99.90;;;;;;5089019;28;20200;-68
2022/05/17 12:00:51;;;;;;;0.40;0.40;;;22.20;99.90;;;;;;5079136;28;20284;-68
2022/05/17 12:03:51;;;;;;;0.47;0.47;;;22.20;99.90;;;;;;5073278;28;20221;-68
2022/05/17 12:07:05;;;;;;;0.40;0.40;;;22.30;99.90;;;;;;5072237;28;20209;-68
2022/05/17 12:09:55;;;;;;;0.40;0.40;;;22.20;99.90;;;;;;5069179;28;20211;-68
2022/05/17 12:13:00;;;;;;;0.40;0.40;;;22.40;99.90;;;;;;5067974;28;20197;-69
2022/05/17 12:15:52;;;;;;;0.70;0.70;;;23.00;99.90;;;;;;5064080;28;20200;-68
2022/05/17 12:18:46;;;;;;;1.67;1.45;;;23.20;99.90;;;;;;5073423;28;20625;-68
2022/05/17 12:21:50;;;;;;;0.40;0.40;;;23.60;99.90;;;;;;5073408;28;20208;-67
2022/05/17 12:24:50;;;;;;;0.77;0.40;;;23.60;99.90;;;;;;5074458;28;20216;-68
2022/05/17 12:27:42;;;;;;;0.40;0.40;;;23.60;99.90;;;;;;5065408;28;20575;-68
2022/05/17 12:33:42;;;;;;;0.65;0.65;;;24.10;99.90;;;;;;5062068;28;20690;-68
2022/05/17 12:36:32;;;;;;;0.40;0.40;;;24.40;99.90;;;;;;5066288;28;20201;-68
2022/05/17 12:45:37;;;;;;;0.60;0.60;;;24.90;99.90;;;;;;5067394;28;20234;-67
2022/05/17 12:48:36;;;;;;;3.97;2.53;;;24.60;99.90;;;;;;5064345;28;20201;-67
2022/05/17 12:51:26;;;;;;;0.50;0.50;;;24.30;99.90;;;;;;5064460;28;20197;-74
2022/05/17 12:54:17;;;;;;;0.50;0.50;;;24.00;99.90;;;;;;5064903;28;20219;-69
2022/05/17 12:57:27;;;;;;;0.60;0.60;;;23.80;99.90;;;;;;5065945;28;20199;-66
2022/05/17 13:00:19;;;;;;;0.40;0.40;;;23.60;99.90;;;;;;5054139;28;20243;-69
2022/05/17 13:03:17;;;;;;;8.07;7.28;;;23.40;99.90;;;;;;5053376;28;20351;-68
2022/05/17 13:06:06;;;;;;;0.50;0.50;;;23.50;99.90;;;;;;5054657;28;20287;-67
2022/05/17 13:08:59;;;;;;;0.40;0.40;;;23.50;99.90;;;;;;5071412;28;20197;-68
2022/05/17 13:11:48;;;;;;;0.50;0.50;;;23.60;99.90;;;;;;5066323;28;20568;-67
2022/05/17 13:14:43;;;;;;;0.40;0.40;;;23.70;99.90;;;;;;5069566;28;20264;-68
2022/05/17 13:17:33;;;;;;;0.95;0.85;;;23.50;99.90;;;;;;5066982;28;20220;-68
2022/05/17 13:20:24;;;;;;;0.40;0.40;;;23.70;99.90;;;;;;5064070;28;20681;-68
2022/05/17 13:23:14;;;;;;;0.40;0.40;;;23.60;99.90;;;;;;5061479;28;20828;-68
2022/05/17 13:26:06;;;;;;;0.40;0.40;;;23.80;99.90;;;;;;5063407;28;20207;-70
2022/05/17 13:28:55;;;;;;;1.25;1.08;;;24.40;99.90;;;;;;5061222;28;20201;-67
2022/05/17 13:31:44;;;;;;;0.63;0.63;;;25.10;99.90;;;;;;5064037;28;20669;-69
2022/05/17 13:34:34;;;;;;;0.40;0.40;;;25.50;99.90;;;;;;5056379;28;20228;-69
2022/05/17 13:37:23;;;;;;;0.60;0.60;;;25.70;99.90;;;;;;5052560;28;20197;-69
2022/05/17 13:40:11;;;;;;;0.40;0.40;;;25.70;99.90;;;;;;5052454;28;20198;-69
2022/05/17 13:43:01;;;;;;;0.40;0.40;;;25.40;99.90;;;;;;5051613;28;20686;-68
2022/05/17 13:46:05;;;;;;;0.40;0.40;;;25.40;99.90;;;;;;5059746;28;20285;-68
2022/05/17 13:49:16;;;;;;;0.80;0.77;;;25.30;99.90;;;;;;5071021;28;20277;-68
2022/05/17 13:52:25;;;;;;;0.40;0.40;;;25.40;99.90;;;;;;5065724;28;20201;-70
2022/05/17 13:55:20;;;;;;;0.40;0.40;;;25.40;99.90;;;;;;5063303;28;20217;-67
2022/05/17 13:58:13;;;;;;;0.40;0.40;;;25.70;99.90;;;;;;5065688;28;20258;-67
2022/05/17 14:01:09;;;;;;;0.40;0.40;;;25.50;99.90;;;;;;5063415;28;20258;-67
2022/05/17 14:04:13;;;;;;;0.63;0.63;;;25.80;99.90;;;;;;5051517;28;20233;-67
2022/05/17 14:07:05;;;;;;;0.40;0.40;;;26.10;99.90;;;;;;5058447;28;20839;-67
2022/05/17 14:13:26;;;;;;;0.40;0.40;;;26.00;99.90;;;;;;5067190;28;20223;-67
2022/05/17 14:16:21;;;;;;;0.40;0.40;;;25.60;99.90;;;;;;5070871;28;20201;-69
2022/05/17 14:19:15;;;;;;;0.40;0.40;;;25.20;99.90;;;;;;5071710;28;20721;-69
2022/05/17 14:22:07;;;;;;;0.40;0.40;;;25.10;99.90;;;;;;5070000;28;20574;-69
2022/05/17 14:24:55;;;;;;;0.40;0.40;;;25.00;99.90;;;;;;5071838;28;20313;-69
2022/05/17 14:27:43;;;;;;;0.40;0.40;;;25.00;99.90;;;;;;5072063;28;20261;-70
2022/05/17 14:30:34;;;;;;;0.50;0.50;;;25.30;99.90;;;;;;5070646;28;20251;-69
2022/05/17 14:33:22;;;;;;;0.40;0.40;;;25.40;99.90;;;;;;5067947;28;20685;-69
2022/05/17 14:36:14;;;;;;;0.40;0.40;;;25.50;99.90;;;;;;5072193;28;20225;-69
2022/05/17 14:39:02;;;;;;;0.40;0.40;;;25.10;99.90;;;;;;5069368;28;20274;-69
2022/05/17 14:42:08;;;;;;;2.70;1.35;;;24.80;99.90;;;;;;5071547;28;20210;-69
2022/05/17 14:44:57;;;;;;;0.50;0.50;;;24.40;99.90;;;;;;5070704;28;20228;-69
2022/05/17 14:47:47;;;;;;;0.40;0.40;;;24.30;99.90;;;;;;5069593;28;20683;-69
2022/05/17 14:50:37;;;;;;;0.50;0.50;;;24.30;99.90;;;;;;5066592;28;20207;-72
2022/05/17 14:53:25;;;;;;;0.82;0.82;;;24.40;99.90;;;;;;5061941;28;20209;-69
2022/05/17 14:56:13;;;;;;;0.40;0.40;;;24.20;99.90;;;;;;5064514;28;20224;-69
2022/05/17 14:59:02;;;;;;;0.45;0.45;;;23.80;99.90;;;;;;5060449;28;20210;-68
2022/05/17 15:01:53;;;;;;;0.40;0.40;;;23.50;99.90;;;;;;5067404;28;20216;-66
2022/05/17 15:04:43;;;;;;;0.40;0.40;;;23.50;99.90;;;;;;5066194;28;20239;-69
2022/05/17 15:07:34;;;;;;;0.40;0.40;;;23.70;99.90;;;;;;5064467;28;20223;-69
2022/05/17 15:10:26;;;;;;;0.40;0.40;;;24.40;99.90;;;;;;5061760;28;20205;-68
2022/05/17 15:13:15;;;;;;;0.40;0.40;;;24.80;99.90;;;;;;5063617;28;20198;-70
2022/05/17 15:16:04;;;;;;;0.40;0.40;;;25.10;99.90;;;;;;5061822;28;20202;-67
2022/05/17 15:18:54;;;;;;;0.40;0.40;;;25.60;99.90;;;;;;5060334;28;21323;-67
2022/05/17 15:21:44;;;;;;;0.40;0.40;;;26.30;99.90;;;;;;5064327;28;20206;-68
2022/05/17 15:24:32;;;;;;;0.40;0.40;;;26.40;99.90;;;;;;5064746;28;20316;-70